Weather History for Waycross, GA

Change the Weather History Date:

Thursday, December 13, 2012

  Actual Average (KAMG) Record (KAMG)
Temperature  
Mean Temperature 47 °F 53 °F  
Max Temperature 50 °F 64 °F 83 °F (1972)
Min Temperature 44 °F 42 °F 7 °F (1962)
Degree Days  
Heating Degree Days 18 12  
Month to date heating degree days 145  
Since 1 July heating degree days 389  
Cooling Degree Days 0 0  
Month to date cooling degree days 7  
Year to date cooling degree days 2472  
Moisture  
Dew Point 45 °F    
Average Humidity 95    
Maximum Humidity 100    
Minimum Humidity 87    
Precipitation  
Precipitation 0.00 in 0.10 in 1.38 in (1985)
Month to date precipitation 1.28  
Year to date precipitation 44.64  
Snow  
Snow 0.00 in 0.00 in 0.00 in ()
Month to date snowfall 0.0  
Since 1 July snowfall 0.0  
Snow Depth -    
Sea Level Pressure  
Sea Level Pressure 30.25 in    
Wind  
Wind Speed 8 mph (NNE)    
Max Wind Speed 15 mph    
Max Gust Speed 20 mph    
Visibility 8 miles    
Events      
T = Trace of Precipitation, MM = Missing Value Source: NWS Daily Summary

Daily Weather History Graph

Daily Weather History Graph

Search for Another Location

Airport:

Trip Planner

Search our weather history database for the weather conditions in past years. The results will help you decide how hot, cold, wet, or windy it might be!

Date:

Astronomy

Dec. 13, 2012 Rise Set
Actual Time 7:19 AM EST 5:28 PM EST
Civil Twilight 6:53 AM EST 5:54 PM EST
Nautical Twilight 6:22 AM EST 6:25 PM EST
Astronomical Twilight 5:53 AM EST 6:54 PM EST
Moon 7:28 AM EST (12/13) 6:07 PM EST (12/13)
Length of Visible Light 11h 01m
Length of Day
10h 08m
New Moon, 0% of the Moon is Illuminated
Dec 13
New Moon
Dec 20
First Quarter
Dec 28
Full
Jan 4
Last Quarter
Jan 11
New

Hourly Weather History & Observations

Time (EST) Temp. Windchill Dew Point Humidity Pressure Visibility Wind Dir Wind Speed Gust Speed Precip Events Conditions
12:15 AM 50.0 °F - 50.0 °F 100% 30.18 in 1.8 mi North 5.8 mph - N/A   Overcast
12:35 AM 50.0 °F - 50.0 °F 100% 30.17 in 2.5 mi NNW 9.2 mph - N/A   Overcast
12:55 AM 50.0 °F - 48.2 °F 94% 30.17 in 3.0 mi North 6.9 mph - N/A   Overcast
1:15 AM 48.2 °F - 48.2 °F 100% 30.16 in 3.0 mi North 6.9 mph - N/A   Overcast
1:35 AM 48.2 °F - 48.2 °F 100% 30.16 in 4.0 mi North 6.9 mph - N/A   Overcast
1:55 AM 48.2 °F - 48.2 °F 100% 30.16 in 5.0 mi North 6.9 mph - N/A   Overcast
2:15 AM 48.2 °F - 48.2 °F 100% 30.16 in 5.0 mi North 6.9 mph - N/A   Overcast
2:35 AM 48.2 °F - 48.2 °F 100% 30.15 in 10.0 mi NNE 8.1 mph - N/A   Overcast
2:55 AM 48.2 °F - 48.2 °F 100% 30.15 in 10.0 mi NNE 8.1 mph - N/A   Overcast
3:15 AM 48.2 °F - 48.2 °F 100% 30.15 in 10.0 mi NNE 10.4 mph - N/A   Overcast
3:35 AM 48.2 °F - 48.2 °F 100% 30.16 in 10.0 mi NNE 8.1 mph - N/A   Overcast
3:55 AM 48.2 °F - 46.4 °F 93% 30.15 in 10.0 mi NNE 10.4 mph - N/A   Overcast
4:15 AM 48.2 °F - 46.4 °F 93% 30.16 in 10.0 mi North 8.1 mph - N/A   Overcast
4:35 AM 48.2 °F - 46.4 °F 93% 30.17 in 10.0 mi North 8.1 mph - N/A   Overcast
4:55 AM 48.2 °F - 46.4 °F 93% 30.17 in 10.0 mi North 6.9 mph - N/A   Overcast
5:15 AM 48.2 °F - 46.4 °F 93% 30.18 in 10.0 mi North 11.5 mph - N/A   Unknown
5:35 AM 46.4 °F 42.9 °F 46.4 °F 100% 30.19 in 10.0 mi NNE 6.9 mph - N/A   Overcast
5:55 AM 48.2 °F - 46.4 °F 93% 30.19 in 10.0 mi North 8.1 mph - N/A   Unknown
6:15 AM 46.4 °F 42.4 °F 46.4 °F 100% 30.20 in 10.0 mi North 8.1 mph - N/A   Unknown
6:35 AM 46.4 °F 42.4 °F 46.4 °F 100% 30.21 in 10.0 mi North 8.1 mph - N/A   Unknown
6:55 AM 46.4 °F 41.5 °F 46.4 °F 100% 30.22 in 7.0 mi North 10.4 mph - N/A   Unknown
7:15 AM 46.4 °F 40.7 °F 46.4 °F 100% 30.23 in 7.0 mi North 12.7 mph - N/A   Unknown
7:35 AM 46.4 °F 41.9 °F 44.6 °F 93% 30.25 in 7.0 mi North 9.2 mph - N/A   Unknown
7:55 AM 46.4 °F 41.5 °F 44.6 °F 93% 30.25 in 7.0 mi North 10.4 mph - N/A   Unknown
8:15 AM 46.4 °F 41.9 °F 44.6 °F 93% 30.26 in 5.0 mi North 9.2 mph - N/A   Unknown
8:35 AM 46.4 °F 41.1 °F 44.6 °F 93% 30.27 in 4.0 mi North 11.5 mph - N/A   Unknown
8:55 AM 44.6 °F 37.8 °F 44.6 °F 100% 30.27 in 5.0 mi NNE 15.0 mph 19.6 mph N/A   Unknown
9:15 AM 44.6 °F 38.8 °F 44.6 °F 100% 30.27 in 10.0 mi NNE 11.5 mph - N/A   Unknown
9:35 AM 44.6 °F 39.2 °F 44.6 °F 100% 30.29 in 10.0 mi North 10.4 mph - N/A   Unknown
9:55 AM 44.6 °F 40.7 °F 44.6 °F 100% 30.29 in 5.0 mi North 6.9 mph - N/A   Unknown
10:15 AM 46.4 °F 41.9 °F 44.6 °F 93% 30.29 in 10.0 mi NNE 9.2 mph - N/A   Unknown
10:35 AM 46.4 °F 42.9 °F 44.6 °F 93% 30.30 in 10.0 mi North 6.9 mph - N/A   Unknown
10:55 AM 46.4 °F 42.4 °F 44.6 °F 93% 30.30 in 10.0 mi North 8.1 mph - N/A   Unknown
11:15 AM 46.4 °F 41.9 °F 44.6 °F 93% 30.30 in 10.0 mi North 9.2 mph - N/A   Unknown
11:35 AM 46.4 °F 42.4 °F 44.6 °F 93% 30.30 in 10.0 mi North 8.1 mph - N/A   Unknown
11:55 AM 46.4 °F 41.1 °F 44.6 °F 93% 30.30 in 10.0 mi NNE 11.5 mph - N/A   Unknown
12:15 PM 46.4 °F 42.4 °F 44.6 °F 93% 30.30 in 10.0 mi NNE 8.1 mph - N/A   Unknown
12:35 PM 46.4 °F 41.1 °F 44.6 °F 93% 30.29 in 10.0 mi NNE 11.5 mph - N/A   Unknown
12:55 PM 46.4 °F 41.5 °F 44.6 °F 93% 30.28 in 10.0 mi NNE 10.4 mph - N/A   Unknown
1:15 PM 46.4 °F 42.9 °F 44.6 °F 93% 30.28 in 10.0 mi NNE 6.9 mph - N/A   Unknown
1:35 PM 46.4 °F 41.5 °F 44.6 °F 93% 30.27 in 10.0 mi NNE 10.4 mph - N/A   Unknown
1:55 PM 46.4 °F 41.9 °F 44.6 °F 93% 30.27 in 10.0 mi NNE 9.2 mph - N/A   Unknown
2:15 PM 46.4 °F 42.9 °F 44.6 °F 93% 30.27 in 10.0 mi NNE 6.9 mph - N/A   Unknown
2:35 PM 46.4 °F 42.4 °F 44.6 °F 93% 30.28 in 10.0 mi NNE 8.1 mph - N/A   Unknown
2:55 PM 46.4 °F 42.4 °F 44.6 °F 93% 30.28 in 10.0 mi North 8.1 mph - N/A   Unknown
3:15 PM 46.4 °F 42.9 °F 44.6 °F 93% 30.28 in 10.0 mi NNE 6.9 mph - N/A   Unknown
3:35 PM 46.4 °F 42.9 °F 44.6 °F 93% 30.28 in 10.0 mi NNE 6.9 mph - N/A   Unknown
3:55 PM 46.4 °F 43.5 °F 44.6 °F 93% 30.28 in 10.0 mi NNE 5.8 mph - N/A   Unknown
4:15 PM 46.4 °F 42.4 °F 44.6 °F 93% 30.28 in 10.0 mi NNE 8.1 mph - N/A   Unknown
4:35 PM 46.4 °F 44.3 °F 42.8 °F 87% 30.27 in 10.0 mi North 4.6 mph - N/A   Unknown
4:55 PM 46.4 °F 42.4 °F 44.6 °F 93% 30.28 in 10.0 mi North 8.1 mph - N/A   Unknown
5:15 PM 46.4 °F 43.5 °F 44.6 °F 93% 30.27 in 10.0 mi North 5.8 mph - N/A   Unknown
5:35 PM 46.4 °F 42.9 °F 42.8 °F 87% 30.27 in 10.0 mi NNE 6.9 mph - N/A   Unknown
5:55 PM 46.4 °F 42.9 °F 42.8 °F 87% 30.28 in 10.0 mi NNE 6.9 mph - N/A   Unknown
6:15 PM 46.4 °F 42.9 °F 44.6 °F 93% 30.28 in 10.0 mi NNE 6.9 mph - N/A   Unknown
6:35 PM 46.4 °F 41.9 °F 44.6 °F 93% 30.29 in 10.0 mi NE 9.2 mph - N/A   Unknown
7:15 PM 44.6 °F 38.8 °F 44.6 °F 100% 30.29 in 5.0 mi NNE 11.5 mph - N/A   Unknown
7:35 PM 44.6 °F 39.7 °F 44.6 °F 100% 30.30 in 4.0 mi NNE 9.2 mph - N/A   Unknown
7:55 PM 44.6 °F 39.2 °F 44.6 °F 100% 30.30 in 4.0 mi NE 10.4 mph - N/A   Unknown
8:15 PM 44.6 °F 39.7 °F 44.6 °F 100% 30.30 in 5.0 mi North 9.2 mph - N/A   Unknown
8:35 PM 44.6 °F 40.2 °F 44.6 °F 100% 30.30 in 7.0 mi NNE 8.1 mph - N/A   Unknown
8:55 PM 44.6 °F 40.7 °F 44.6 °F 100% 30.31 in 7.0 mi NE 6.9 mph - N/A   Unknown
9:15 PM 46.4 °F 43.5 °F 44.6 °F 93% 30.31 in 10.0 mi ENE 5.8 mph - N/A   Unknown
9:35 PM 46.4 °F 42.4 °F 44.6 °F 93% 30.31 in 10.0 mi ENE 8.1 mph - N/A   Unknown
9:55 PM 46.4 °F 42.9 °F 44.6 °F 93% 30.31 in 7.0 mi ENE 6.9 mph - N/A   Unknown
10:15 PM 46.4 °F 43.5 °F 44.6 °F 93% 30.32 in 7.0 mi East 5.8 mph - N/A   Unknown
10:35 PM 46.4 °F 43.5 °F 44.6 °F 93% 30.32 in 7.0 mi East 5.8 mph - N/A   Unknown
10:55 PM 46.4 °F 44.3 °F 44.6 °F 93% 30.32 in 5.0 mi East 4.6 mph - N/A   Unknown
11:15 PM 46.4 °F 42.4 °F 44.6 °F 93% 30.32 in 4.0 mi East 8.1 mph - N/A   Unknown
11:35 PM 46.4 °F 43.5 °F 44.6 °F 93% 30.32 in 2.0 mi East 5.8 mph - N/A   Unknown
11:55 PM 46.4 °F 42.9 °F 44.6 °F 93% 30.32 in 2.0 mi ENE 6.9 mph - N/A   Unknown